sensor_id;sensor_type;location;lat;lon;timestamp;pressure;altitude;pressure_sealevel;temperature;humidity
50103;BME280;35993;52.604;10.078;2023-12-04T00:01:58;101486.28;;;-0.59;95.32
50103;BME280;35993;52.604;10.078;2023-12-04T00:04:24;101478.28;;;-0.59;95.25
50103;BME280;35993;52.604;10.078;2023-12-04T00:06:49;101477.53;;;-0.61;95.48
50103;BME280;35993;52.604;10.078;2023-12-04T00:09:16;101466.41;;;-0.66;95.60
50103;BME280;35993;52.604;10.078;2023-12-04T00:11:42;101464.97;;;-0.70;95.99
50103;BME280;35993;52.604;10.078;2023-12-04T00:14:07;101469.91;;;-0.66;96.22
50103;BME280;35993;52.604;10.078;2023-12-04T00:16:34;101455.59;;;-0.64;96.19
50103;BME280;35993;52.604;10.078;2023-12-04T00:19:03;101462.63;;;-0.63;95.74
50103;BME280;35993;52.604;10.078;2023-12-04T00:21:31;101454.63;;;-0.63;95.83
50103;BME280;35993;52.604;10.078;2023-12-04T00:23:57;101447.84;;;-0.56;95.65
50103;BME280;35993;52.604;10.078;2023-12-04T00:26:22;101446.25;;;-0.59;95.80
50103;BME280;35993;52.604;10.078;2023-12-04T00:28:48;101447.69;;;-0.55;95.62
50103;BME280;35993;52.604;10.078;2023-12-04T00:31:17;101446.84;;;-0.55;95.13
50103;BME280;35993;52.604;10.078;2023-12-04T00:33:43;101449.72;;;-0.47;94.53
50103;BME280;35993;52.604;10.078;2023-12-04T00:36:10;101459.91;;;-0.41;94.66
50103;BME280;35993;52.604;10.078;2023-12-04T00:38:37;101456.38;;;-0.41;94.32
50103;BME280;35993;52.604;10.078;2023-12-04T00:41:02;101456.13;;;-0.38;93.86
50103;BME280;35993;52.604;10.078;2023-12-04T00:43:31;101455.13;;;-0.37;94.09
50103;BME280;35993;52.604;10.078;2023-12-04T00:45:58;101446.66;;;-0.42;94.03
50103;BME280;35993;52.604;10.078;2023-12-04T00:48:23;101448.63;;;-0.44;93.65
50103;BME280;35993;52.604;10.078;2023-12-04T00:50:51;101443.44;;;-0.46;93.76
50103;BME280;35993;52.604;10.078;2023-12-04T00:53:16;101438.19;;;-0.47;93.69
50103;BME280;35993;52.604;10.078;2023-12-04T00:55:42;101445.56;;;-0.40;93.73
50103;BME280;35993;52.604;10.078;2023-12-04T00:58:07;101429.38;;;-0.48;93.07
50103;BME280;35993;52.604;10.078;2023-12-04T01:00:34;101423.06;;;-0.47;93.24
50103;BME280;35993;52.604;10.078;2023-12-04T01:02:59;101415.81;;;-0.56;92.67
50103;BME280;35993;52.604;10.078;2023-12-04T01:05:25;101411.06;;;-0.53;92.98
50103;BME280;35993;52.604;10.078;2023-12-04T01:07:50;101404.75;;;-0.52;92.57
50103;BME280;35993;52.604;10.078;2023-12-04T01:10:16;101406.31;;;-0.49;92.99
50103;BME280;35993;52.604;10.078;2023-12-04T01:12:42;101392.84;;;-0.47;92.55
50103;BME280;35993;52.604;10.078;2023-12-04T01:15:08;101385.31;;;-0.42;92.32
50103;BME280;35993;52.604;10.078;2023-12-04T01:17:35;101387.28;;;-0.44;92.74
50103;BME280;35993;52.604;10.078;2023-12-04T01:20:01;101381.63;;;-0.51;92.30
50103;BME280;35993;52.604;10.078;2023-12-04T01:22:26;101381.22;;;-0.46;92.51
50103;BME280;35993;52.604;10.078;2023-12-04T01:24:52;101368.59;;;-0.44;92.60
50103;BME280;35993;52.604;10.078;2023-12-04T01:27:20;101360.66;;;-0.35;92.29
50103;BME280;35993;52.604;10.078;2023-12-04T01:29:46;101363.22;;;-0.33;92.03
50103;BME280;35993;52.604;10.078;2023-12-04T01:32:12;101355.59;;;-0.38;92.03
50103;BME280;35993;52.604;10.078;2023-12-04T01:34:37;101352.91;;;-0.38;91.65
50103;BME280;35993;52.604;10.078;2023-12-04T01:37:03;101346.75;;;-0.38;91.98
50103;BME280;35993;52.604;10.078;2023-12-04T01:39:28;101347.22;;;-0.33;92.06
50103;BME280;35993;52.604;10.078;2023-12-04T01:41:54;101347.41;;;-0.46;92.21
50103;BME280;35993;52.604;10.078;2023-12-04T01:44:19;101342.53;;;-0.41;92.62
50103;BME280;35993;52.604;10.078;2023-12-04T01:46:48;101346.75;;;-0.38;92.57
50103;BME280;35993;52.604;10.078;2023-12-04T01:49:14;101343.81;;;-0.35;92.71
50103;BME280;35993;52.604;10.078;2023-12-04T01:51:40;101340.56;;;-0.39;92.67
50103;BME280;35993;52.604;10.078;2023-12-04T01:54:06;101337.00;;;-0.28;93.40
50103;BME280;35993;52.604;10.078;2023-12-04T01:56:34;101331.50;;;-0.26;92.99
50103;BME280;35993;52.604;10.078;2023-12-04T01:59:01;101339.78;;;-0.29;93.02
50103;BME280;35993;52.604;10.078;2023-12-04T02:01:28;101337.38;;;-0.32;93.06
50103;BME280;35993;52.604;10.078;2023-12-04T02:03:54;101335.28;;;-0.29;93.46
50103;BME280;35993;52.604;10.078;2023-12-04T02:06:20;101333.22;;;-0.25;93.77
50103;BME280;35993;52.604;10.078;2023-12-04T02:08:46;101338.09;;;-0.30;93.23
50103;BME280;35993;52.604;10.078;2023-12-04T02:11:12;101326.25;;;-0.38;93.13
50103;BME280;35993;52.604;10.078;2023-12-04T02:13:37;101325.13;;;-0.35;93.06
50103;BME280;35993;52.604;10.078;2023-12-04T02:16:07;101329.38;;;-0.32;92.94
50103;BME280;35993;52.604;10.078;2023-12-04T02:18:34;101327.28;;;-0.29;93.10
50103;BME280;35993;52.604;10.078;2023-12-04T02:21:01;101323.50;;;-0.47;93.29
50103;BME280;35993;52.604;10.078;2023-12-04T02:23:27;101315.25;;;-0.44;93.56
50103;BME280;35993;52.604;10.078;2023-12-04T02:26:07;101311.22;;;-0.39;94.02
50103;BME280;35993;52.604;10.078;2023-12-04T02:28:38;101314.97;;;-0.41;93.79
50103;BME280;35993;52.604;10.078;2023-12-04T02:31:05;101304.97;;;-0.49;93.97
50103;BME280;35993;52.604;10.078;2023-12-04T02:33:33;101309.06;;;-0.45;94.32
50103;BME280;35993;52.604;10.078;2023-12-04T02:36:01;101311.63;;;-0.43;94.69
50103;BME280;35993;52.604;10.078;2023-12-04T02:38:30;101306.59;;;-0.37;94.78
50103;BME280;35993;52.604;10.078;2023-12-04T02:40:56;101301.72;;;-0.31;94.48
50103;BME280;35993;52.604;10.078;2023-12-04T02:43:22;101302.22;;;-0.38;94.16
50103;BME280;35993;52.604;10.078;2023-12-04T02:45:47;101292.66;;;-0.40;94.62
50103;BME280;35993;52.604;10.078;2023-12-04T02:48:13;101284.38;;;-0.37;94.65
50103;BME280;35993;52.604;10.078;2023-12-04T02:50:38;101280.63;;;-0.35;94.79
50103;BME280;35993;52.604;10.078;2023-12-04T02:53:04;101283.41;;;-0.36;94.60
50103;BME280;35993;52.604;10.078;2023-12-04T02:55:29;101279.72;;;-0.45;94.73
50103;BME280;35993;52.604;10.078;2023-12-04T02:57:55;101265.47;;;-0.34;95.27
50103;BME280;35993;52.604;10.078;2023-12-04T03:00:20;101269.56;;;-0.30;95.30
50103;BME280;35993;52.604;10.078;2023-12-04T03:02:46;101267.63;;;-0.28;95.49
50103;BME280;35993;52.604;10.078;2023-12-04T03:05:11;101262.00;;;-0.25;95.92
50103;BME280;35993;52.604;10.078;2023-12-04T03:07:37;101263.97;;;-0.27;95.83
50103;BME280;35993;52.604;10.078;2023-12-04T03:10:03;101260.44;;;-0.27;96.42
50103;BME280;35993;52.604;10.078;2023-12-04T03:12:29;101253.19;;;-0.15;96.73
50103;BME280;35993;52.604;10.078;2023-12-04T03:14:54;101246.00;;;-0.25;96.67
50103;BME280;35993;52.604;10.078;2023-12-04T03:17:20;101245.75;;;-0.22;97.18
50103;BME280;35993;52.604;10.078;2023-12-04T03:19:45;101238.72;;;-0.23;97.17
50103;BME280;35993;52.604;10.078;2023-12-04T03:22:13;101232.78;;;-0.26;97.73
50103;BME280;35993;52.604;10.078;2023-12-04T03:24:39;101232.41;;;-0.22;98.04
50103;BME280;35993;52.604;10.078;2023-12-04T03:27:04;101228.88;;;-0.22;98.86
50103;BME280;35993;52.604;10.078;2023-12-04T03:29:30;101225.66;;;-0.16;98.72
50103;BME280;35993;52.604;10.078;2023-12-04T03:31:55;101226.56;;;-0.06;99.05
50103;BME280;35993;52.604;10.078;2023-12-04T03:34:21;101223.06;;;-0.06;99.06
50103;BME280;35993;52.604;10.078;2023-12-04T03:36:46;101221.94;;;-0.04;99.27
50103;BME280;35993;52.604;10.078;2023-12-04T03:39:12;101220.09;;;-0.03;98.82
50103;BME280;35993;52.604;10.078;2023-12-04T03:41:37;101216.16;;;-0.09;99.22
50103;BME280;35993;52.604;10.078;2023-12-04T03:44:03;101225.88;;;0.02;99.51
50103;BME280;35993;52.604;10.078;2023-12-04T03:46:28;101218.31;;;0.07;99.42
50103;BME280;35993;52.604;10.078;2023-12-04T03:48:55;101212.72;;;0.10;99.54
50103;BME280;35993;52.604;10.078;2023-12-04T03:51:21;101207.09;;;0.13;99.68
50103;BME280;35993;52.604;10.078;2023-12-04T03:53:46;101212.13;;;0.16;99.26
50103;BME280;35993;52.604;10.078;2023-12-04T03:56:11;101203.44;;;0.14;99.58
50103;BME280;35993;52.604;10.078;2023-12-04T03:58:37;101200.78;;;0.14;99.09
50103;BME280;35993;52.604;10.078;2023-12-04T04:01:04;101200.47;;;0.08;99.81
50103;BME280;35993;52.604;10.078;2023-12-04T04:03:32;101205.53;;;0.11;100.00
50103;BME280;35993;52.604;10.078;2023-12-04T04:05:58;101201.75;;;0.13;99.75
50103;BME280;35993;52.604;10.078;2023-12-04T04:08:23;101192.19;;;0.11;100.00
50103;BME280;35993;52.604;10.078;2023-12-04T04:10:49;101188.44;;;0.23;100.00
50103;BME280;35993;52.604;10.078;2023-12-04T04:13:14;101180.56;;;0.31;100.00
50103;BME280;35993;52.604;10.078;2023-12-04T04:15:40;101179.00;;;0.29;100.00
50103;BME280;35993;52.604;10.078;2023-12-04T04:18:07;101175.19;;;0.22;100.00
50103;BME280;35993;52.604;10.078;2023-12-04T04:20:32;101177.47;;;0.26;100.00
50103;BME280;35993;52.604;10.078;2023-12-04T04:22:58;101177.47;;;0.36;100.00
50103;BME280;35993;52.604;10.078;2023-12-04T04:25:23;101178.31;;;0.37;100.00
50103;BME280;35993;52.604;10.078;2023-12-04T04:27:49;101168.88;;;0.23;100.00
50103;BME280;35993;52.604;10.078;2023-12-04T04:30:15;101166.91;;;0.25;100.00
50103;BME280;35993;52.604;10.078;2023-12-04T04:32:41;101171.84;;;0.20;100.00
50103;BME280;35993;52.604;10.078;2023-12-04T04:35:07;101168.72;;;0.14;100.00
50103;BME280;35993;52.604;10.078;2023-12-04T04:37:33;101166.34;;;0.21;100.00
50103;BME280;35993;52.604;10.078;2023-12-04T04:39:58;101161.00;;;0.21;100.00
50103;BME280;35993;52.604;10.078;2023-12-04T04:42:24;101156.78;;;0.19;100.00
50103;BME280;35993;52.604;10.078;2023-12-04T04:44:49;101158.63;;;0.18;100.00
50103;BME280;35993;52.604;10.078;2023-12-04T04:47:15;101149.47;;;0.11;100.00
50103;BME280;35993;52.604;10.078;2023-12-04T04:49:40;101148.50;;;0.12;100.00
50103;BME280;35993;52.604;10.078;2023-12-04T04:52:07;101144.84;;;0.13;100.00
50103;BME280;35993;52.604;10.078;2023-12-04T04:54:32;101143.72;;;0.15;100.00
50103;BME280;35993;52.604;10.078;2023-12-04T04:56:58;101141.31;;;0.12;100.00
50103;BME280;35993;52.604;10.078;2023-12-04T04:59:24;101139.22;;;0.16;100.00
50103;BME280;35993;52.604;10.078;2023-12-04T05:01:49;101132.47;;;0.12;100.00
50103;BME280;35993;52.604;10.078;2023-12-04T05:04:15;101128.13;;;0.11;100.00
50103;BME280;35993;52.604;10.078;2023-12-04T05:06:40;101125.16;;;0.04;100.00
50103;BME280;35993;52.604;10.078;2023-12-04T05:09:06;101128.94;;;0.11;100.00
50103;BME280;35993;52.604;10.078;2023-12-04T05:11:32;101126.00;;;0.14;100.00
50103;BME280;35993;52.604;10.078;2023-12-04T05:13:58;101112.81;;;0.13;100.00
50103;BME280;35993;52.604;10.078;2023-12-04T05:16:23;101121.66;;;0.13;100.00
50103;BME280;35993;52.604;10.078;2023-12-04T05:18:49;101111.81;;;0.04;100.00
50103;BME280;35993;52.604;10.078;2023-12-04T05:21:14;101109.00;;;0.06;100.00
50103;BME280;35993;52.604;10.078;2023-12-04T05:23:40;101110.13;;;0.03;100.00
50103;BME280;35993;52.604;10.078;2023-12-04T05:26:07;101108.41;;;0.02;100.00
50103;BME280;35993;52.604;10.078;2023-12-04T05:28:33;101113.34;;;-0.03;100.00
50103;BME280;35993;52.604;10.078;2023-12-04T05:30:59;101106.03;;;0.09;100.00
50103;BME280;35993;52.604;10.078;2023-12-04T05:33:25;101109.38;;;-0.19;100.00
50103;BME280;35993;52.604;10.078;2023-12-04T05:35:51;101105.06;;;0.00;100.00
50103;BME280;35993;52.604;10.078;2023-12-04T05:38:17;101099.31;;;0.14;100.00
50103;BME280;35993;52.604;10.078;2023-12-04T05:40:43;101103.09;;;0.12;99.81
50103;BME280;35993;52.604;10.078;2023-12-04T05:43:08;101100.88;;;0.17;99.89
50103;BME280;35993;52.604;10.078;2023-12-04T05:45:34;101095.25;;;0.10;100.00
50103;BME280;35993;52.604;10.078;2023-12-04T05:47:59;101094.91;;;-0.16;100.00
50103;BME280;35993;52.604;10.078;2023-12-04T05:50:25;101109.75;;;-0.33;100.00
50103;BME280;35993;52.604;10.078;2023-12-04T05:52:53;101108.47;;;-0.39;100.00
50103;BME280;35993;52.604;10.078;2023-12-04T05:55:18;101106.34;;;-0.45;100.00
50103;BME280;35993;52.604;10.078;2023-12-04T05:57:45;101106.91;;;-0.41;100.00
50103;BME280;35993;52.604;10.078;2023-12-04T06:00:11;101100.31;;;-0.37;100.00
50103;BME280;35993;52.604;10.078;2023-12-04T06:02:47;101100.31;;;-0.37;100.00
50103;BME280;35993;52.604;10.078;2023-12-04T06:05:12;101094.72;;;-0.34;100.00
50103;BME280;35993;52.604;10.078;2023-12-04T06:07:39;101097.00;;;-0.29;100.00
50103;BME280;35993;52.604;10.078;2023-12-04T06:10:06;101085.47;;;-0.30;100.00
50103;BME280;35993;52.604;10.078;2023-12-04T06:12:33;101076.91;;;-0.24;100.00
50103;BME280;35993;52.604;10.078;2023-12-04T06:15:00;101071.56;;;-0.34;100.00
50103;BME280;35993;52.604;10.078;2023-12-04T06:17:26;101074.06;;;-0.32;100.00
50103;BME280;35993;52.604;10.078;2023-12-04T06:19:53;101074.41;;;-0.25;100.00
50103;BME280;35993;52.604;10.078;2023-12-04T06:22:20;101073.56;;;0.04;100.00
50103;BME280;35993;52.604;10.078;2023-12-04T06:24:47;101060.38;;;0.02;100.00
50103;BME280;35993;52.604;10.078;2023-12-04T06:27:15;101050.97;;;0.08;100.00
50103;BME280;35993;52.604;10.078;2023-12-04T06:29:47;101059.13;;;0.16;100.00
50103;BME280;35993;52.604;10.078;2023-12-04T06:32:14;101054.19;;;0.11;100.00
50103;BME280;35993;52.604;10.078;2023-12-04T06:34:41;101049.00;;;0.10;100.00
50103;BME280;35993;52.604;10.078;2023-12-04T06:37:10;101054.78;;;0.05;100.00
50103;BME280;35993;52.604;10.078;2023-12-04T06:39:37;101060.94;;;-0.14;100.00
50103;BME280;35993;52.604;10.078;2023-12-04T06:42:07;101067.28;;;0.14;100.00
50103;BME280;35993;52.604;10.078;2023-12-04T06:44:33;101054.50;;;0.18;100.00
50103;BME280;35993;52.604;10.078;2023-12-04T06:47:02;101056.16;;;0.19;100.00
50103;BME280;35993;52.604;10.078;2023-12-04T06:49:53;101046.34;;;0.20;100.00
50103;BME280;35993;52.604;10.078;2023-12-04T06:52:19;101055.88;;;0.22;100.00
50103;BME280;35993;52.604;10.078;2023-12-04T06:54:44;101043.50;;;0.11;100.00
50103;BME280;35993;52.604;10.078;2023-12-04T06:57:10;101037.47;;;0.19;100.00
50103;BME280;35993;52.604;10.078;2023-12-04T06:59:36;101033.97;;;0.19;100.00
50103;BME280;35993;52.604;10.078;2023-12-04T07:02:01;101037.06;;;0.24;100.00
50103;BME280;35993;52.604;10.078;2023-12-04T07:04:27;101040.72;;;0.13;100.00
50103;BME280;35993;52.604;10.078;2023-12-04T07:06:52;101040.03;;;0.21;100.00
50103;BME280;35993;52.604;10.078;2023-12-04T07:09:18;101035.09;;;0.16;100.00
50103;BME280;35993;52.604;10.078;2023-12-04T07:11:43;101042.53;;;0.22;100.00
50103;BME280;35993;52.604;10.078;2023-12-04T07:14:09;101034.69;;;0.21;99.92
50103;BME280;35993;52.604;10.078;2023-12-04T07:16:39;101038.19;;;0.21;99.67
50103;BME280;35993;52.604;10.078;2023-12-04T07:19:08;101031.59;;;0.15;99.83
50103;BME280;35993;52.604;10.078;2023-12-04T07:21:33;101035.66;;;0.20;99.70
50103;BME280;35993;52.604;10.078;2023-12-04T07:23:59;101032.13;;;0.19;99.59
50103;BME280;35993;52.604;10.078;2023-12-04T07:26:24;101034.13;;;0.17;99.10
50103;BME280;35993;52.604;10.078;2023-12-04T07:28:50;101037.06;;;0.24;98.93
50103;BME280;35993;52.604;10.078;2023-12-04T07:31:15;101035.38;;;0.32;99.02
50103;BME280;35993;52.604;10.078;2023-12-04T07:33:42;101040.00;;;0.30;98.56
50103;BME280;35993;52.604;10.078;2023-12-04T07:36:07;101043.38;;;0.32;98.51
50103;BME280;35993;52.604;10.078;2023-12-04T07:38:33;101045.63;;;0.37;97.88
50103;BME280;35993;52.604;10.078;2023-12-04T07:40:58;101048.00;;;0.30;98.13
50103;BME280;35993;52.604;10.078;2023-12-04T07:43:24;101053.19;;;0.42;98.28
50103;BME280;35993;52.604;10.078;2023-12-04T07:45:50;101048.97;;;0.39;98.13
50103;BME280;35993;52.604;10.078;2023-12-04T07:48:15;101041.53;;;0.43;97.53
50103;BME280;35993;52.604;10.078;2023-12-04T07:50:42;101049.97;;;0.38;97.10
50103;BME280;35993;52.604;10.078;2023-12-04T07:53:07;101045.75;;;0.45;97.13
50103;BME280;35993;52.604;10.078;2023-12-04T07:55:37;101054.19;;;0.51;96.45
50103;BME280;35993;52.604;10.078;2023-12-04T07:58:03;101046.44;;;0.57;96.03
50103;BME280;35993;52.604;10.078;2023-12-04T08:00:28;101042.50;;;0.52;95.92
50103;BME280;35993;52.604;10.078;2023-12-04T08:02:55;101047.16;;;0.49;95.60
50103;BME280;35993;52.604;10.078;2023-12-04T08:05:21;101034.03;;;0.56;95.12
50103;BME280;35993;52.604;10.078;2023-12-04T08:07:48;101043.59;;;0.59;94.74
50103;BME280;35993;52.604;10.078;2023-12-04T08:10:14;101037.59;;;0.57;94.64
50103;BME280;35993;52.604;10.078;2023-12-04T08:12:40;101043.03;;;0.65;94.09
50103;BME280;35993;52.604;10.078;2023-12-04T08:15:09;101041.06;;;0.67;94.12
50103;BME280;35993;52.604;10.078;2023-12-04T08:17:35;101024.47;;;0.63;93.37
50103;BME280;35993;52.604;10.078;2023-12-04T08:20:01;101026.44;;;0.71;92.85
50103;BME280;35993;52.604;10.078;2023-12-04T08:22:35;101018.00;;;0.66;92.60
50103;BME280;35993;52.604;10.078;2023-12-04T08:25:00;101018.56;;;0.60;92.06
50103;BME280;35993;52.604;10.078;2023-12-04T08:27:26;101020.28;;;0.61;92.05
50103;BME280;35993;52.604;10.078;2023-12-04T08:29:52;101018.03;;;0.56;91.46
50103;BME280;35993;52.604;10.078;2023-12-04T08:32:17;101020.13;;;0.62;91.10
50103;BME280;35993;52.604;10.078;2023-12-04T08:34:43;101017.84;;;0.68;90.57
50103;BME280;35993;52.604;10.078;2023-12-04T08:37:10;101017.31;;;0.64;90.05
50103;BME280;35993;52.604;10.078;2023-12-04T08:39:36;101019.53;;;0.69;89.91
50103;BME280;35993;52.604;10.078;2023-12-04T08:42:02;101008.84;;;0.69;89.85
50103;BME280;35993;52.604;10.078;2023-12-04T08:44:29;101006.16;;;0.78;89.87
50103;BME280;35993;52.604;10.078;2023-12-04T08:46:54;101007.00;;;0.79;89.42
50103;BME280;35993;52.604;10.078;2023-12-04T08:49:23;101008.25;;;0.85;88.48
50103;BME280;35993;52.604;10.078;2023-12-04T08:51:51;100997.66;;;0.93;89.00
50103;BME280;35993;52.604;10.078;2023-12-04T08:54:17;101011.47;;;0.88;89.05
50103;BME280;35993;52.604;10.078;2023-12-04T08:56:44;101004.69;;;0.94;88.50
50103;BME280;35993;52.604;10.078;2023-12-04T08:59:10;100999.50;;;0.92;88.18
50103;BME280;35993;52.604;10.078;2023-12-04T09:01:35;101007.72;;;0.81;88.14
50103;BME280;35993;52.604;10.078;2023-12-04T09:04:01;101003.03;;;0.83;88.08
50103;BME280;35993;52.604;10.078;2023-12-04T09:06:27;101000.50;;;0.91;88.08
50103;BME280;35993;52.604;10.078;2023-12-04T09:08:53;100997.38;;;0.96;87.75
50103;BME280;35993;52.604;10.078;2023-12-04T09:11:19;100994.41;;;0.99;87.28
50103;BME280;35993;52.604;10.078;2023-12-04T09:13:51;100996.13;;;0.90;87.25
50103;BME280;35993;52.604;10.078;2023-12-04T09:16:16;101004.97;;;0.91;87.42
50103;BME280;35993;52.604;10.078;2023-12-04T09:18:45;100994.75;;;0.86;86.73
50103;BME280;35993;52.604;10.078;2023-12-04T09:21:14;100997.38;;;0.96;87.48
50103;BME280;35993;52.604;10.078;2023-12-04T09:23:40;100990.91;;;0.98;87.57
50103;BME280;35993;52.604;10.078;2023-12-04T09:26:05;100991.88;;;0.97;87.26
50103;BME280;35993;52.604;10.078;2023-12-04T09:28:32;101001.25;;;1.11;87.17
50103;BME280;35993;52.604;10.078;2023-12-04T09:30:58;100993.66;;;1.07;87.09
50103;BME280;35993;52.604;10.078;2023-12-04T09:33:26;100986.78;;;1.04;86.58
50103;BME280;35993;52.604;10.078;2023-12-04T09:35:55;100987.19;;;1.09;86.48
50103;BME280;35993;52.604;10.078;2023-12-04T09:38:22;100986.47;;;1.07;87.00
50103;BME280;35993;52.604;10.078;2023-12-04T09:40:49;100981.44;;;1.04;87.06
50103;BME280;35993;52.604;10.078;2023-12-04T09:43:16;100982.50;;;0.93;86.74
50103;BME280;35993;52.604;10.078;2023-12-04T09:45:44;100982.88;;;0.98;87.11
50103;BME280;35993;52.604;10.078;2023-12-04T09:48:10;100977.03;;;1.13;87.15
50103;BME280;35993;52.604;10.078;2023-12-04T09:50:36;100977.59;;;1.17;87.23
50103;BME280;35993;52.604;10.078;2023-12-04T09:53:03;100972.81;;;1.10;87.40
50103;BME280;35993;52.604;10.078;2023-12-04T09:55:31;100969.00;;;1.13;87.60
50103;BME280;35993;52.604;10.078;2023-12-04T09:57:56;100972.38;;;1.15;87.16
50103;BME280;35993;52.604;10.078;2023-12-04T10:00:23;100968.13;;;1.22;87.75
50103;BME280;35993;52.604;10.078;2023-12-04T10:02:50;100959.09;;;1.23;86.54
50103;BME280;35993;52.604;10.078;2023-12-04T10:05:15;100962.31;;;1.27;86.97
50103;BME280;35993;52.604;10.078;2023-12-04T10:07:41;100957.25;;;1.24;86.23
50103;BME280;35993;52.604;10.078;2023-12-04T10:10:07;100954.59;;;1.24;86.92
50103;BME280;35993;52.604;10.078;2023-12-04T10:12:35;100949.78;;;1.27;87.16
50103;BME280;35993;52.604;10.078;2023-12-04T10:15:07;100940.84;;;1.37;86.80
50103;BME280;35993;52.604;10.078;2023-12-04T10:17:42;100938.56;;;1.42;86.52
50103;BME280;35993;52.604;10.078;2023-12-04T10:20:13;100935.28;;;1.48;86.08
50103;BME280;35993;52.604;10.078;2023-12-04T10:22:56;100919.78;;;1.52;86.51
50103;BME280;35993;52.604;10.078;2023-12-04T10:25:23;100927.19;;;1.58;86.42
50103;BME280;35993;52.604;10.078;2023-12-04T10:27:51;100929.88;;;1.58;86.73
50103;BME280;35993;52.604;10.078;2023-12-04T10:30:30;100913.13;;;1.56;86.82
50103;BME280;35993;52.604;10.078;2023-12-04T10:33:06;100915.78;;;1.56;87.15
50103;BME280;35993;52.604;10.078;2023-12-04T10:35:36;100913.28;;;1.54;87.15
50103;BME280;35993;52.604;10.078;2023-12-04T10:38:03;100907.63;;;1.57;87.30
50103;BME280;35993;52.604;10.078;2023-12-04T10:40:34;100907.91;;;1.54;87.52
50103;BME280;35993;52.604;10.078;2023-12-04T10:43:14;100903.50;;;1.63;87.81
50103;BME280;35993;52.604;10.078;2023-12-04T10:45:42;100904.94;;;1.75;87.59
50103;BME280;35993;52.604;10.078;2023-12-04T10:48:09;100897.03;;;1.74;87.11
50103;BME280;35993;52.604;10.078;2023-12-04T10:50:38;100887.28;;;1.64;86.66
50103;BME280;35993;52.604;10.078;2023-12-04T10:53:06;100887.97;;;1.67;87.36
50103;BME280;35993;52.604;10.078;2023-12-04T10:55:36;100881.47;;;1.69;86.40
50103;BME280;35993;52.604;10.078;2023-12-04T10:58:09;100882.47;;;1.68;86.89
50103;BME280;35993;52.604;10.078;2023-12-04T11:00:40;100891.56;;;1.75;88.53
50103;BME280;35993;52.604;10.078;2023-12-04T11:03:10;100882.22;;;1.79;88.58
50103;BME280;35993;52.604;10.078;2023-12-04T11:05:40;100875.56;;;1.84;89.06
50103;BME280;35993;52.604;10.078;2023-12-04T11:08:08;100879.38;;;1.81;88.77
50103;BME280;35993;52.604;10.078;2023-12-04T11:10:40;100877.84;;;1.78;88.96
50103;BME280;35993;52.604;10.078;2023-12-04T11:13:15;100869.13;;;1.76;88.57
50103;BME280;35993;52.604;10.078;2023-12-04T11:15:45;100864.72;;;1.67;88.20
50103;BME280;35993;52.604;10.078;2023-12-04T11:18:15;100867.00;;;1.62;88.60
50103;BME280;35993;52.604;10.078;2023-12-04T11:21:03;100874.81;;;1.73;89.37
50103;BME280;35993;52.604;10.078;2023-12-04T11:23:31;100869.59;;;1.72;89.26
50103;BME280;35993;52.604;10.078;2023-12-04T11:25:57;100862.03;;;1.67;89.69
50103;BME280;35993;52.604;10.078;2023-12-04T11:28:24;100867.72;;;1.64;89.64
50103;BME280;35993;52.604;10.078;2023-12-04T11:30:51;100862.41;;;1.72;89.79
50103;BME280;35993;52.604;10.078;2023-12-04T11:33:18;100858.22;;;1.70;89.58
50103;BME280;35993;52.604;10.078;2023-12-04T11:35:45;100853.56;;;1.72;89.58
50103;BME280;35993;52.604;10.078;2023-12-04T11:38:14;100859.81;;;1.80;89.39
50103;BME280;35993;52.604;10.078;2023-12-04T11:40:42;100850.75;;;1.82;89.62
50103;BME280;35993;52.604;10.078;2023-12-04T11:43:27;100849.94;;;1.81;89.43
50103;BME280;35993;52.604;10.078;2023-12-04T11:46:19;100844.13;;;1.86;89.69
50103;BME280;35993;52.604;10.078;2023-12-04T11:48:49;100847.47;;;1.88;89.48
50103;BME280;35993;52.604;10.078;2023-12-04T11:54:09;100842.81;;;1.90;89.29
50103;BME280;35993;52.604;10.078;2023-12-04T11:56:36;100837.28;;;1.91;88.95
50103;BME280;35993;52.604;10.078;2023-12-04T11:59:06;100828.50;;;1.81;88.29
50103;BME280;35993;52.604;10.078;2023-12-04T12:01:36;100806.19;;;1.72;87.85
50103;BME280;35993;52.604;10.078;2023-12-04T12:04:07;100820.16;;;1.84;88.49
50103;BME280;35993;52.604;10.078;2023-12-04T12:06:32;100809.09;;;1.79;88.88
50103;BME280;35993;52.604;10.078;2023-12-04T12:09:00;100813.16;;;1.83;89.13
50103;BME280;35993;52.604;10.078;2023-12-04T12:11:27;100809.63;;;1.83;88.99
50103;BME280;35993;52.604;10.078;2023-12-04T12:13:55;100807.72;;;1.75;89.35
50103;BME280;35993;52.604;10.078;2023-12-04T12:16:24;100802.88;;;1.70;88.81
50103;BME280;35993;52.604;10.078;2023-12-04T12:18:51;100807.94;;;1.82;89.77
50103;BME280;35993;52.604;10.078;2023-12-04T12:21:17;100809.63;;;1.83;89.82
50103;BME280;35993;52.604;10.078;2023-12-04T12:23:42;100802.56;;;1.82;89.61
50103;BME280;35993;52.604;10.078;2023-12-04T12:26:08;100794.72;;;1.80;89.66
50103;BME280;35993;52.604;10.078;2023-12-04T12:28:36;100797.75;;;1.85;90.16
50103;BME280;35993;52.604;10.078;2023-12-04T12:31:03;100787.38;;;1.82;90.48
50103;BME280;35993;52.604;10.078;2023-12-04T12:33:30;100781.94;;;1.74;90.69
50103;BME280;35993;52.604;10.078;2023-12-04T12:35:57;100780.22;;;1.64;91.04
50103;BME280;35993;52.604;10.078;2023-12-04T12:38:24;100767.16;;;1.61;91.30
50103;BME280;35993;52.604;10.078;2023-12-04T12:40:50;100762.13;;;1.58;91.63
50103;BME280;35993;52.604;10.078;2023-12-04T12:43:16;100765.28;;;1.54;92.05
50103;BME280;35993;52.604;10.078;2023-12-04T12:45:43;100755.03;;;1.49;92.02